Tecumseh, Missouri
Current Conditions -  °F | °C
As of 4:53 AM on Sunday 26 Oct 2014 (Local Time) from KBPK Reporting Station
Moderate Fog Moderate Fog  
Wind Chill: 59°   Ceiling: Unl
Heat Index: 59°   Visibility: 0.5mi
Dew Point: 59°   Wind: 0mph
Humidity: 100%   Direction: NA
Pressure: 30"   Gusts: NA
Location:  36.59°N, 92.29°W
Report Text: KBPK 260953Z AUTO 00000KT 1/2SM FG CLR 15/15 A3000 RMK AO2 SLP149 T01500150
Loading
Personal Weather Stations






























Interactive Weather Map
Tropical Storm Tracking
New forecast layout! Learn more

10-Day Weather Forecast

Advertisements
Track Severe Weather on mobile